OIBL  Bandar Lengeh Airport

Add Bookmark

Bandar Lengeh, Iran

Status IATA
Operational BDH
Latitude Longitude
26° 31' 55" N 54° 49' 29" E
26.532000 54.824799
Local (DST + 5) UTC (GMT + 4)
Dec 21, 2014 03:39 Dec 21, 2014 12:09
Sunrise-Sunset Local UTC
Begin Civil Twilight 06:07 02:37
Sunrise 06:33 03:03
Sunset 05:04 13:34
End Civil Twilight 05:29 13:59

Current Weather

METAR Observed MVFR
OIBL 211100Z 23012KT 7000 NSC 24/12 Q1013 Sun, Dec 21, 2014 @ 11:00 UTC
(1 Hour, 9 Minutes ago)
Marginal Visual Flight Rules
Wind Visibility Clouds Conditions
230° at 12 knots (22 kph) 7000 meters
  • Clear skies
  • No significant weather
Temperatures Readings Precipitation
Current Temp 24°C (75°F)
Dewpoint 12°C (54°F)
Humidity 47%
Altimeter 29.91"Hg
Sea Level Pressure 1013mb
Field Elevation 45.93'
None Recorded

Additional weather within a 92.6km radius of OIBL

Map ICAO Location
OIBS 74.8km S (202°)
OIBA 75.7km S (164°)
OIBK 83.9km W (270°)

24 Hour Weather History

Loading
-

24 Hour Weather Graphs

Loading
-

CheckWX.com is intended as a tool to help pilots better visualize weather data. It is not intended as a substitute for an official weather briefing obtained from a Flight Service Station. CheckWX.com does not meet the FAA requirements for an official pre-flight weather briefing. Therefore, it's important that pilots still call and obtain an official FSS pre-flight weather briefing.